Gujrat, Pakistan
Current Conditions -  °F | °C
As of 12:59 PM on Monday 20 Oct 2014 (Local Time) from OPLA Reporting Station
Haze Haze  
Wind Chill: 88°   Ceiling: Unl
Heat Index: 88°   Visibility: 2.5mi
Dew Point: 55°   Wind: 8mph
Humidity: 33%   Direction: 290°WNW
Pressure: 29.94"   Gusts: NA
Location:  32.58°N, 74.07°E
Report Text: OPLA 200759Z 29007KT 4000 HZ NSC 31/13 Q1014 NOSIG
Loading
Personal Weather Stations






























Interactive Weather Map
Tropical Storm Tracking
New forecast layout! Learn more

10-Day Weather Forecast

Advertisements
Track Severe Weather on mobile